Time;durP1;ratioP1;P1;durP2;ratioP2;P2;SDS_P1;SDS_P2;PMS_P1;PMS_P2;Temp;Humidity;BMP_temperature;BMP_pressure;BME280_temperature;BME280_humidity;BME280_pressure;Samples;Min_cycle;Max_cycle;Signal;HPM_P1;HPM_P2
2022/04/22 00:02:24;;;;;;;12.00;8.23;;;10.50;99.90;;;;;;4956022;28;20211;-67
2022/04/22 00:04:51;;;;;;;10.90;8.80;;;10.50;99.90;;;;;;4965265;28;20209;-67
2022/04/22 00:07:17;;;;;;;13.10;9.10;;;10.50;99.90;;;;;;4966631;28;20223;-67
2022/04/22 00:09:44;;;;;;;11.57;8.90;;;10.50;99.90;;;;;;4958371;28;20215;-66
2022/04/22 00:12:12;;;;;;;12.33;9.27;;;10.50;99.90;;;;;;4957337;28;20236;-65
2022/04/22 00:14:39;;;;;;;12.90;8.53;;;10.50;99.90;;;;;;4971883;28;20233;-67
2022/04/22 00:17:07;;;;;;;13.07;8.60;;;10.40;99.90;;;;;;4962609;28;20213;-67
2022/04/22 00:19:34;;;;;;;14.93;8.53;;;10.40;99.90;;;;;;4960559;28;20249;-67
2022/04/22 00:22:01;;;;;;;12.73;9.30;;;10.40;99.90;;;;;;4957668;28;20312;-66
2022/04/22 00:24:28;;;;;;;11.23;8.60;;;10.40;99.90;;;;;;4961990;28;20287;-67
2022/04/22 00:26:55;;;;;;;14.37;9.93;;;10.40;99.90;;;;;;4971160;28;20224;-68
2022/04/22 00:29:22;;;;;;;13.43;9.67;;;10.40;99.90;;;;;;4963986;28;20264;-66
2022/04/22 00:31:49;;;;;;;13.90;9.23;;;10.50;99.90;;;;;;4976204;28;20213;-67
2022/04/22 00:34:17;;;;;;;16.67;9.43;;;10.50;99.90;;;;;;4974877;28;20221;-67
2022/04/22 00:36:44;;;;;;;12.53;8.90;;;10.50;99.90;;;;;;4957858;28;20220;-66
2022/04/22 00:39:11;;;;;;;13.43;9.07;;;10.50;99.90;;;;;;4964949;28;20213;-67
2022/04/22 00:41:37;;;;;;;14.40;10.17;;;10.40;99.90;;;;;;4960009;28;20225;-66
2022/04/22 00:44:05;;;;;;;14.50;9.27;;;10.40;99.90;;;;;;4958353;28;20297;-66
2022/04/22 00:46:32;;;;;;;13.90;9.17;;;10.40;99.90;;;;;;4958323;28;20209;-67
2022/04/22 00:48:58;;;;;;;13.80;8.70;;;10.30;99.90;;;;;;4957304;28;20300;-67
2022/04/22 00:51:27;;;;;;;17.30;9.30;;;10.30;99.90;;;;;;4957261;28;20213;-68
2022/04/22 00:53:54;;;;;;;13.73;9.10;;;10.20;99.90;;;;;;4958225;28;20252;-67
2022/04/22 00:56:21;;;;;;;15.73;8.90;;;10.20;99.90;;;;;;4958378;28;20225;-67
2022/04/22 00:58:50;;;;;;;13.10;9.13;;;10.30;99.90;;;;;;4963055;28;20622;-67
2022/04/22 01:01:17;;;;;;;14.03;8.53;;;10.10;99.90;;;;;;4966757;28;20245;-67
2022/04/22 01:09:47;;;;;;;10.37;8.47;;;10.10;99.90;;;;;;4967063;28;20280;-65
2022/04/22 01:12:07;;;;;;;11.60;7.93;;;10.00;99.90;;;;;;4961709;28;20207;-67
2022/04/22 01:14:34;;;;;;;10.30;7.13;;;10.00;99.90;;;;;;4957554;28;20232;-66
2022/04/22 01:17:01;;;;;;;9.40;6.93;;;9.90;99.90;;;;;;4956214;28;20232;-66
2022/04/22 01:19:28;;;;;;;10.87;7.93;;;9.90;99.90;;;;;;4968966;28;20681;-66
2022/04/22 01:21:57;;;;;;;9.40;7.37;;;9.90;99.90;;;;;;4963396;28;20240;-66
2022/04/22 01:24:24;;;;;;;10.97;7.83;;;9.90;99.90;;;;;;4963908;28;20208;-65
2022/04/22 01:26:54;;;;;;;8.70;6.67;;;9.80;99.90;;;;;;4963581;28;20654;-67
2022/04/22 01:29:21;;;;;;;8.47;6.30;;;9.90;99.90;;;;;;4962079;28;20671;-66
2022/04/22 01:31:48;;;;;;;8.57;6.60;;;9.90;99.90;;;;;;4956568;28;20667;-66
2022/04/22 01:34:15;;;;;;;8.70;6.13;;;9.80;99.90;;;;;;4964997;28;20307;-66
2022/04/22 01:36:42;;;;;;;9.40;6.33;;;9.80;99.90;;;;;;4958319;28;20201;-67
2022/04/22 01:39:10;;;;;;;8.63;6.03;;;9.80;99.90;;;;;;4964764;28;20206;-66
2022/04/22 01:41:37;;;;;;;7.17;5.53;;;9.80;99.90;;;;;;4958025;28;20282;-66
2022/04/22 01:44:04;;;;;;;7.67;5.83;;;9.80;99.90;;;;;;4956621;28;20547;-67
2022/04/22 01:46:31;;;;;;;8.17;5.83;;;9.80;99.90;;;;;;4959358;28;20201;-66
2022/04/22 01:48:58;;;;;;;8.17;5.83;;;9.80;99.90;;;;;;4956188;28;20296;-66
2022/04/22 01:51:25;;;;;;;7.53;5.97;;;9.70;99.90;;;;;;4960153;28;20209;-65
2022/04/22 01:53:52;;;;;;;7.27;5.43;;;9.70;99.90;;;;;;4956101;28;20264;-66
2022/04/22 01:56:21;;;;;;;6.60;5.03;;;9.70;99.90;;;;;;4955865;28;20747;-65
2022/04/22 01:58:48;;;;;;;7.47;5.00;;;9.70;99.90;;;;;;4969780;28;20217;-66
2022/04/22 02:01:15;;;;;;;6.37;4.90;;;9.70;99.90;;;;;;4959417;28;20208;-66
2022/04/22 02:03:42;;;;;;;5.73;4.73;;;9.60;99.90;;;;;;4965702;28;20295;-66
2022/04/22 02:06:08;;;;;;;5.80;5.00;;;9.60;99.90;;;;;;4970728;28;20287;-66
2022/04/22 02:08:36;;;;;;;5.67;4.87;;;9.60;99.90;;;;;;4964917;28;20201;-66
2022/04/22 02:11:04;;;;;;;5.50;4.60;;;9.60;99.90;;;;;;4958145;28;20209;-66
2022/04/22 02:13:36;;;;;;;6.43;4.60;;;9.60;99.90;;;;;;4956421;28;20657;-66
2022/04/22 02:16:04;;;;;;;7.47;4.80;;;9.60;99.90;;;;;;4956126;28;20654;-65
2022/04/22 02:18:34;;;;;;;5.50;4.37;;;9.60;99.90;;;;;;4959131;28;20299;-66
2022/04/22 02:21:01;;;;;;;6.70;4.23;;;9.60;99.90;;;;;;4959995;28;20233;-66
2022/04/22 02:23:27;;;;;;;6.47;4.33;;;9.60;99.90;;;;;;4957892;28;20284;-65
2022/04/22 02:25:54;;;;;;;5.73;4.27;;;9.50;99.90;;;;;;4956585;28;20247;-66
2022/04/22 02:28:33;;;;;;;7.23;4.17;;;9.50;99.90;;;;;;4956256;28;20202;-66
2022/04/22 02:31:02;;;;;;;5.43;3.87;;;9.50;99.90;;;;;;4957217;28;20292;-67
2022/04/22 02:33:29;;;;;;;4.80;4.27;;;9.50;99.90;;;;;;4968805;28;20241;-66
2022/04/22 02:35:56;;;;;;;4.40;3.83;;;9.40;99.90;;;;;;4963923;28;20239;-66
2022/04/22 02:38:23;;;;;;;4.17;3.63;;;9.40;99.90;;;;;;4956265;28;20252;-65
2022/04/22 02:46:20;;;;;;;3.67;3.10;;;9.30;99.90;;;;;;4955296;28;20260;-66
2022/04/22 02:48:48;;;;;;;5.80;3.20;;;9.30;99.90;;;;;;4956098;28;20249;-66
2022/04/22 02:51:14;;;;;;;5.30;3.13;;;9.20;99.90;;;;;;4956175;28;20209;-66
2022/04/22 02:53:41;;;;;;;3.83;2.90;;;9.20;99.90;;;;;;4955227;28;20237;-66
2022/04/22 02:56:08;;;;;;;3.13;2.60;;;9.20;99.90;;;;;;4958455;28;20216;-66
2022/04/22 02:58:35;;;;;;;3.40;2.77;;;9.30;99.90;;;;;;4954434;28;20247;-66
2022/04/22 03:01:03;;;;;;;3.23;2.83;;;9.10;99.90;;;;;;4959812;28;20232;-65
2022/04/22 03:03:31;;;;;;;2.97;2.30;;;9.10;99.90;;;;;;4957533;28;20205;-65
2022/04/22 03:05:58;;;;;;;3.53;2.90;;;9.00;99.90;;;;;;4956300;28;20563;-66
2022/04/22 03:08:25;;;;;;;2.40;2.20;;;9.00;99.90;;;;;;4955918;28;20215;-67
2022/04/22 03:10:52;;;;;;;2.77;2.10;;;9.00;99.90;;;;;;4963920;28;20212;-69
2022/04/22 03:13:19;;;;;;;3.73;2.20;;;9.00;99.90;;;;;;4954562;28;20252;-67
2022/04/22 03:15:46;;;;;;;2.73;1.93;;;9.00;99.90;;;;;;4953877;28;20296;-68
2022/04/22 03:18:13;;;;;;;1.97;1.80;;;8.90;99.90;;;;;;4954484;28;20283;-68
2022/04/22 03:20:42;;;;;;;2.80;2.60;;;8.90;99.90;;;;;;4954746;28;20671;-69
2022/04/22 03:23:09;;;;;;;4.40;2.80;;;8.90;99.90;;;;;;4953184;28;20216;-68
2022/04/22 03:25:36;;;;;;;2.87;2.10;;;8.90;99.90;;;;;;4955839;28;20268;-69
2022/04/22 03:28:05;;;;;;;2.70;2.30;;;8.80;99.90;;;;;;4958524;28;20679;-69
2022/04/22 03:30:34;;;;;;;3.10;2.80;;;8.80;99.90;;;;;;4955543;28;20224;-67
2022/04/22 03:33:01;;;;;;;2.77;2.30;;;8.90;99.90;;;;;;4966944;28;20265;-67
2022/04/22 03:35:28;;;;;;;2.63;2.20;;;8.90;99.90;;;;;;4960469;28;20232;-68
2022/04/22 03:37:57;;;;;;;2.20;2.00;;;8.90;99.90;;;;;;4967864;28;20641;-68
2022/04/22 03:40:24;;;;;;;2.57;1.60;;;8.90;99.90;;;;;;4953749;28;20659;-69
2022/04/22 03:42:52;;;;;;;2.10;1.90;;;8.80;99.90;;;;;;4969689;28;20216;-67
2022/04/22 03:45:20;;;;;;;2.10;2.00;;;8.80;99.90;;;;;;4958465;28;20202;-68
2022/04/22 03:47:47;;;;;;;2.17;1.87;;;8.80;99.90;;;;;;4964032;28;20208;-68
2022/04/22 03:50:14;;;;;;;2.23;1.93;;;8.90;99.90;;;;;;4959564;28;20205;-69
2022/04/22 03:52:41;;;;;;;3.27;2.40;;;8.90;99.90;;;;;;4958913;28;20236;-68
2022/04/22 03:55:10;;;;;;;3.23;2.30;;;8.90;99.90;;;;;;4960603;28;20242;-69
2022/04/22 04:00:22;;;;;;;4.80;2.07;;;8.80;99.90;;;;;;4966765;28;20223;-69
2022/04/22 04:02:49;;;;;;;1.97;1.77;;;8.80;99.90;;;;;;4958274;28;20236;-69
2022/04/22 04:05:16;;;;;;;1.83;1.70;;;8.80;99.90;;;;;;4958599;28;20608;-69
2022/04/22 04:07:44;;;;;;;2.17;1.97;;;8.80;99.90;;;;;;4963175;28;20224;-68
2022/04/22 04:16:00;;;;;;;1.87;1.70;;;8.70;99.90;;;;;;4961786;28;20608;-68
2022/04/22 04:18:28;;;;;;;2.00;1.80;;;8.80;99.90;;;;;;4957664;28;20605;-68
2022/04/22 04:23:39;;;;;;;1.80;1.70;;;8.70;99.90;;;;;;4956825;28;20209;-68
2022/04/22 04:26:08;;;;;;;2.00;1.80;;;8.70;99.90;;;;;;4957049;28;20292;-68
2022/04/22 04:28:35;;;;;;;2.33;2.00;;;8.70;99.90;;;;;;4964769;28;20307;-68
2022/04/22 04:31:02;;;;;;;3.30;2.13;;;8.70;99.90;;;;;;4963382;28;20874;-68
2022/04/22 04:33:29;;;;;;;2.53;2.23;;;8.80;99.90;;;;;;4959049;28;20260;-68
2022/04/22 04:35:56;;;;;;;2.47;2.17;;;8.70;99.90;;;;;;4966809;28;20227;-68
2022/04/22 04:38:23;;;;;;;2.17;1.97;;;8.70;99.90;;;;;;4974032;28;20271;-67
2022/04/22 04:40:51;;;;;;;2.30;2.10;;;8.70;99.90;;;;;;4965674;28;20784;-68
2022/04/22 04:43:20;;;;;;;2.97;2.20;;;8.60;99.90;;;;;;4971136;28;20214;-68
2022/04/22 04:45:49;;;;;;;2.30;2.10;;;8.60;99.90;;;;;;4963169;28;20201;-68
2022/04/22 04:48:16;;;;;;;3.90;2.60;;;8.60;99.90;;;;;;4960713;28;20659;-70
2022/04/22 04:50:44;;;;;;;2.70;2.50;;;8.70;99.90;;;;;;4958568;28;20235;-69
2022/04/22 04:53:11;;;;;;;3.07;2.73;;;8.70;99.90;;;;;;4957455;28;20205;-69
2022/04/22 04:55:38;;;;;;;3.40;3.10;;;8.80;99.90;;;;;;4968658;28;20263;-70
2022/04/22 04:58:05;;;;;;;3.20;2.90;;;8.90;99.90;;;;;;4971065;28;20252;-68
2022/04/22 05:00:33;;;;;;;3.30;3.00;;;8.90;99.90;;;;;;4965687;28;20227;-67
2022/04/22 05:03:00;;;;;;;3.63;3.33;;;9.00;99.90;;;;;;4957091;28;20220;-67
2022/04/22 05:05:27;;;;;;;4.53;4.00;;;9.10;99.90;;;;;;4957204;28;20206;-68
2022/04/22 05:07:57;;;;;;;4.70;4.20;;;9.10;99.90;;;;;;4969397;28;20304;-68
2022/04/22 05:10:25;;;;;;;5.50;4.00;;;9.10;99.90;;;;;;4967453;28;20208;-68
2022/04/22 05:12:53;;;;;;;4.53;4.07;;;9.10;99.90;;;;;;4969730;28;20213;-68
2022/04/22 05:15:22;;;;;;;4.47;4.07;;;9.10;99.90;;;;;;4966833;28;20267;-70
2022/04/22 05:17:52;;;;;;;4.43;4.00;;;9.10;99.90;;;;;;4957450;28;20212;-69
2022/04/22 05:20:21;;;;;;;5.60;4.67;;;9.10;99.90;;;;;;4958194;28;20216;-68
2022/04/22 05:22:48;;;;;;;4.80;4.10;;;9.10;99.90;;;;;;4962198;28;20244;-69
2022/04/22 05:25:16;;;;;;;4.93;4.37;;;9.10;99.90;;;;;;4955901;28;20217;-68
2022/04/22 05:27:44;;;;;;;5.90;5.23;;;9.10;99.90;;;;;;4968886;28;20209;-67
2022/04/22 05:32:58;;;;;;;6.17;5.57;;;9.00;99.90;;;;;;4964858;28;20268;-69
2022/04/22 05:35:27;;;;;;;8.23;5.37;;;9.00;99.90;;;;;;4968910;28;20235;-69
2022/04/22 05:37:56;;;;;;;6.77;5.30;;;8.90;99.90;;;;;;4966567;28;20596;-66
2022/04/22 05:40:24;;;;;;;7.10;5.53;;;8.90;99.90;;;;;;4958900;28;20233;-66
2022/04/22 05:42:53;;;;;;;7.63;5.73;;;8.90;99.90;;;;;;4959907;28;20209;-68
2022/04/22 05:45:21;;;;;;;8.87;6.07;;;8.90;99.90;;;;;;4966791;28;20275;-67
2022/04/22 05:47:49;;;;;;;7.73;6.23;;;8.90;99.90;;;;;;4972218;28;20236;-69
2022/04/22 05:50:20;;;;;;;7.70;5.70;;;9.00;99.90;;;;;;4959601;28;20233;-69
2022/04/22 05:52:47;;;;;;;6.67;5.60;;;9.00;99.90;;;;;;4956683;28;20213;-71
2022/04/22 05:55:17;;;;;;;7.97;7.18;;;9.00;99.90;;;;;;4960453;28;20474;-69
2022/04/22 05:57:45;;;;;;;6.17;5.57;;;9.00;99.90;;;;;;4958158;28;20214;-69
2022/04/22 06:00:14;;;;;;;9.23;5.97;;;9.10;99.90;;;;;;4962278;28;20213;-68
2022/04/22 06:02:42;;;;;;;7.17;5.73;;;9.20;99.90;;;;;;4961194;28;20218;-69
2022/04/22 06:05:09;;;;;;;4.77;4.37;;;9.20;99.90;;;;;;4963198;28;20207;-69
2022/04/22 06:07:41;;;;;;;5.90;5.30;;;9.30;99.90;;;;;;4971765;28;20655;-68
2022/04/22 06:12:55;;;;;;;5.70;5.10;;;9.40;99.90;;;;;;4961848;28;20207;-69
2022/04/22 06:15:22;;;;;;;6.43;4.87;;;9.50;99.90;;;;;;4970277;28;20319;-68
2022/04/22 06:17:49;;;;;;;5.43;4.80;;;9.60;99.90;;;;;;4964429;28;20217;-70
2022/04/22 06:20:16;;;;;;;5.00;4.43;;;9.70;99.90;;;;;;4956249;28;20273;-69
2022/04/22 06:22:45;;;;;;;5.03;4.53;;;9.80;99.90;;;;;;4972127;28;20312;-69
2022/04/22 06:25:12;;;;;;;7.60;4.47;;;9.80;99.90;;;;;;4968239;28;20316;-70
2022/04/22 06:27:40;;;;;;;7.80;5.17;;;10.00;99.90;;;;;;4970650;28;20295;-68
2022/04/22 06:30:09;;;;;;;5.47;4.63;;;10.00;99.90;;;;;;4974603;28;20275;-70
2022/04/22 06:32:38;;;;;;;5.10;4.60;;;10.10;99.90;;;;;;4973105;28;20232;-68
2022/04/22 06:35:07;;;;;;;5.70;5.20;;;10.20;99.90;;;;;;4970501;28;20225;-70
2022/04/22 06:37:36;;;;;;;4.53;3.90;;;10.20;99.90;;;;;;4970365;28;20633;-69
2022/04/22 06:45:48;;;;;;;4.83;4.33;;;10.60;99.90;;;;;;4973540;28;20243;-71
2022/04/22 06:48:17;;;;;;;5.20;4.63;;;10.70;99.90;;;;;;4968325;28;20197;-70
2022/04/22 06:50:46;;;;;;;5.67;4.30;;;10.90;99.90;;;;;;4965368;28;20243;-69
2022/04/22 06:53:15;;;;;;;4.07;3.67;;;10.90;99.90;;;;;;4968459;28;20205;-67
2022/04/22 06:55:44;;;;;;;4.67;4.23;;;10.90;99.90;;;;;;4974646;28;20717;-69
2022/04/22 06:58:13;;;;;;;4.87;3.70;;;11.00;99.90;;;;;;4974579;28;20219;-69
2022/04/22 07:00:41;;;;;;;4.80;4.03;;;11.10;99.90;;;;;;4968227;28;20332;-67
2022/04/22 07:03:09;;;;;;;4.77;3.60;;;11.10;99.90;;;;;;4963165;28;20240;-68
2022/04/22 07:05:38;;;;;;;3.80;3.50;;;11.10;99.90;;;;;;4965689;28;20209;-68
2022/04/22 07:08:07;;;;;;;4.63;3.20;;;11.10;99.90;;;;;;4964614;28;20316;-68
2022/04/22 07:10:35;;;;;;;3.67;3.37;;;11.00;99.90;;;;;;4962151;28;20725;-68
2022/04/22 07:13:04;;;;;;;3.83;3.43;;;10.90;99.90;;;;;;4954512;28;20213;-70
2022/04/22 07:15:32;;;;;;;5.53;3.47;;;11.00;99.90;;;;;;4955832;28;20691;-69
2022/04/22 07:17:59;;;;;;;4.40;3.80;;;10.90;99.90;;;;;;4955930;28;20205;-70
2022/04/22 07:20:26;;;;;;;3.60;3.30;;;10.90;99.90;;;;;;4956211;28;20653;-69
2022/04/22 07:22:54;;;;;;;3.93;3.50;;;10.90;99.90;;;;;;4957828;28;20209;-69
2022/04/22 07:25:22;;;;;;;4.03;3.63;;;10.90;99.90;;;;;;4969128;28;20216;-70
2022/04/22 07:27:49;;;;;;;4.77;4.27;;;10.90;99.90;;;;;;4967783;28;20235;-71
2022/04/22 07:30:20;;;;;;;5.80;3.73;;;10.90;99.90;;;;;;4965921;28;20628;-67
2022/04/22 07:32:48;;;;;;;4.30;3.90;;;10.90;99.90;;;;;;4962211;28;20233;-66
2022/04/22 07:35:16;;;;;;;4.77;3.60;;;11.00;99.90;;;;;;4966611;28;20238;-68
2022/04/22 07:37:45;;;;;;;5.50;3.60;;;11.10;99.90;;;;;;4960098;28;20300;-68
2022/04/22 07:40:13;;;;;;;4.73;3.90;;;11.20;99.90;;;;;;4967418;28;20249;-68
2022/04/22 07:46:46;;;;;;;5.07;3.77;;;11.30;99.90;;;;;;4967265;28;20653;-69
2022/04/22 07:48:18;;;;;;;3.30;3.00;;;11.60;99.90;;;;;;4967652;28;20216;-67
2022/04/22 07:50:47;;;;;;;3.93;3.60;;;11.80;99.90;;;;;;4957320;28;20255;-69
2022/04/22 07:53:14;;;;;;;4.47;3.30;;;12.20;99.90;;;;;;4967703;28;20255;-68
2022/04/22 07:55:41;;;;;;;4.63;3.93;;;12.50;99.90;;;;;;4965471;28;20229;-67
2022/04/22 07:58:09;;;;;;;3.53;3.23;;;12.70;99.90;;;;;;4964682;28;20268;-69
2022/04/22 08:00:38;;;;;;;4.07;3.67;;;12.70;99.90;;;;;;4971305;28;20202;-69
2022/04/22 08:03:05;;;;;;;4.03;3.57;;;12.80;99.90;;;;;;4962955;28;20205;-69
2022/04/22 08:05:32;;;;;;;3.77;3.37;;;12.70;99.90;;;;;;4970442;28;20252;-68
2022/04/22 08:07:59;;;;;;;4.00;3.43;;;12.70;99.90;;;;;;4968678;28;20209;-68
2022/04/22 08:10:26;;;;;;;7.30;4.17;;;12.60;99.90;;;;;;4955649;28;20221;-68
2022/04/22 08:12:53;;;;;;;3.70;3.30;;;12.60;99.90;;;;;;4957181;28;20245;-68
2022/04/22 08:15:21;;;;;;;4.50;4.07;;;12.60;99.90;;;;;;4955307;28;20256;-68
2022/04/22 08:17:49;;;;;;;4.13;3.73;;;12.50;99.90;;;;;;4958482;28;20668;-67
2022/04/22 08:20:16;;;;;;;4.37;3.97;;;12.50;99.90;;;;;;4955637;28;20744;-69
2022/04/22 08:22:44;;;;;;;5.10;4.07;;;12.40;99.90;;;;;;4957160;28;20232;-68
2022/04/22 08:25:11;;;;;;;4.40;4.00;;;12.40;99.90;;;;;;4965861;28;20584;-67
2022/04/22 08:27:39;;;;;;;4.70;4.17;;;12.40;99.90;;;;;;4964430;28;20251;-68
2022/04/22 08:30:07;;;;;;;4.70;4.03;;;12.40;99.90;;;;;;4968068;28;20217;-67
2022/04/22 08:32:34;;;;;;;4.23;3.83;;;12.30;99.90;;;;;;4961556;28;20633;-68
2022/04/22 08:35:03;;;;;;;4.90;4.00;;;12.30;99.90;;;;;;4971896;28;20213;-67
2022/04/22 08:37:30;;;;;;;4.70;3.93;;;12.30;99.90;;;;;;4966727;28;20213;-67
2022/04/22 08:39:57;;;;;;;4.30;3.90;;;12.30;99.90;;;;;;4966333;28;20233;-68
2022/04/22 08:42:24;;;;;;;4.50;3.97;;;12.30;99.90;;;;;;4957444;28;20304;-69
2022/04/22 08:44:52;;;;;;;4.80;4.30;;;12.30;99.90;;;;;;4960639;28;20247;-69
2022/04/22 08:50:13;;;;;;;5.27;4.33;;;12.30;99.90;;;;;;4965665;28;20208;-68
2022/04/22 08:52:41;;;;;;;3.87;3.57;;;12.20;99.90;;;;;;4970726;28;20670;-67
2022/04/22 08:55:13;;;;;;;3.90;3.60;;;12.10;99.90;;;;;;4969341;28;20671;-68
2022/04/22 08:57:42;;;;;;;4.20;3.67;;;12.20;99.90;;;;;;4959236;28;20304;-69
2022/04/22 09:00:09;;;;;;;7.47;4.03;;;12.30;99.90;;;;;;4962785;28;20698;-68
2022/04/22 09:02:38;;;;;;;4.67;4.07;;;12.50;99.90;;;;;;4957869;28;20296;-68
2022/04/22 09:05:08;;;;;;;4.47;3.77;;;12.50;99.70;;;;;;4961789;28;20209;-68
2022/04/22 09:07:36;;;;;;;4.20;3.80;;;12.60;99.20;;;;;;4971776;28;20906;-68
2022/04/22 09:10:02;;;;;;;4.07;3.77;;;12.70;98.90;;;;;;4960528;28;20324;-70
2022/04/22 09:12:31;;;;;;;3.93;3.63;;;12.90;99.80;;;;;;4971335;28;20292;-70
2022/04/22 09:14:58;;;;;;;4.20;3.80;;;13.10;98.30;;;;;;4968456;28;20665;-70
2022/04/22 09:17:27;;;;;;;4.73;3.73;;;13.10;97.50;;;;;;4957355;28;20564;-71
2022/04/22 09:19:55;;;;;;;4.80;4.30;;;13.00;97.60;;;;;;4969333;28;20213;-69
2022/04/22 09:22:24;;;;;;;6.47;4.10;;;13.30;97.90;;;;;;4960920;28;20233;-69
2022/04/22 09:24:53;;;;;;;5.10;4.33;;;13.50;97.40;;;;;;4970218;28;20221;-69
2022/04/22 09:27:20;;;;;;;4.33;3.93;;;13.60;96.70;;;;;;4956389;28;20240;-69
2022/04/22 09:29:55;;;;;;;3.87;3.47;;;13.70;94.80;;;;;;4956459;28;20237;-69
2022/04/22 09:32:23;;;;;;;4.27;3.87;;;13.60;93.70;;;;;;4961168;28;20294;-69
2022/04/22 09:34:50;;;;;;;4.13;3.77;;;13.40;93.30;;;;;;4970764;28;20209;-69
2022/04/22 09:42:50;;;;;;;3.47;3.17;;;13.20;94.50;;;;;;4964953;28;20753;-70
2022/04/22 09:45:17;;;;;;;4.50;3.93;;;13.20;94.50;;;;;;4963304;28;20211;-70
2022/04/22 09:47:56;;;;;;;4.33;3.93;;;13.10;94.20;;;;;;4960383;28;20220;-71
2022/04/22 09:50:42;;;;;;;6.00;4.17;;;12.90;94.30;;;;;;4958187;28;20284;-71
2022/04/22 09:53:10;;;;;;;4.70;4.20;;;12.80;94.40;;;;;;4963679;28;20216;-69
2022/04/22 09:55:47;;;;;;;4.37;3.83;;;12.60;94.10;;;;;;4959972;28;20214;-70
2022/04/22 09:58:22;;;;;;;4.97;4.43;;;12.50;94.30;;;;;;4957860;28;20189;-71
2022/04/22 10:00:54;;;;;;;4.70;3.53;;;12.40;94.60;;;;;;4968627;28;20212;-70
2022/04/22 10:03:23;;;;;;;3.97;3.67;;;12.40;95.00;;;;;;4963119;28;20217;-70
2022/04/22 10:05:53;;;;;;;4.13;3.43;;;12.60;94.90;;;;;;4961989;28;20296;-72
2022/04/22 10:08:20;;;;;;;4.20;3.80;;;12.60;94.40;;;;;;4964744;28;20673;-73
2022/04/22 10:10:53;;;;;;;4.37;3.97;;;12.70;94.20;;;;;;4973003;28;20240;-71
2022/04/22 10:13:22;;;;;;;5.30;3.80;;;12.80;94.10;;;;;;4966916;28;20212;-72
2022/04/22 10:15:50;;;;;;;3.73;3.40;;;12.90;94.30;;;;;;4967892;28;20224;-74
2022/04/22 10:18:18;;;;;;;3.53;3.23;;;13.30;94.10;;;;;;4960884;28;20207;-72
2022/04/22 10:20:46;;;;;;;3.37;3.07;;;13.60;92.90;;;;;;4973518;28;20748;-74
2022/04/22 10:23:13;;;;;;;4.00;3.13;;;14.00;92.00;;;;;;4965311;28;20236;-70
2022/04/22 10:25:40;;;;;;;3.33;3.03;;;14.40;90.60;;;;;;4974606;28;20240;-71
2022/04/22 10:28:11;;;;;;;3.47;3.17;;;14.80;89.90;;;;;;4966733;28;20204;-73
2022/04/22 10:30:42;;;;;;;3.37;3.07;;;15.10;86.60;;;;;;4964055;28;20209;-73
2022/04/22 10:33:10;;;;;;;4.27;2.90;;;15.10;82.40;;;;;;4966477;28;20263;-73
2022/04/22 10:35:41;;;;;;;2.97;2.77;;;15.00;81.50;;;;;;4967849;28;20296;-74
2022/04/22 10:38:28;;;;;;;3.53;3.23;;;15.00;81.60;;;;;;4973602;28;20204;-74
2022/04/22 10:40:55;;;;;;;5.30;3.83;;;14.90;81.40;;;;;;4964132;28;20233;-74
2022/04/22 10:43:26;;;;;;;3.90;3.60;;;14.70;81.50;;;;;;4960640;28;20640;-75
2022/04/22 10:48:40;;;;;;;2.77;2.57;;;14.30;82.50;;;;;;4963409;28;20211;-73
2022/04/22 10:51:10;;;;;;;4.97;2.87;;;14.10;83.00;;;;;;4965906;28;20212;-78
2022/04/22 10:53:48;;;;;;;3.60;3.30;;;14.10;83.30;;;;;;4966421;28;20302;-74
2022/04/22 10:56:33;;;;;;;4.37;2.90;;;14.00;82.00;;;;;;4959823;28;20754;-75
2022/04/22 10:59:32;;;;;;;3.50;3.10;;;14.00;83.20;;;;;;4944506;28;20224;-73
2022/04/22 11:02:00;;;;;;;2.77;2.50;;;14.00;81.70;;;;;;4970090;28;20248;-73
2022/04/22 11:04:29;;;;;;;3.27;2.97;;;14.10;81.60;;;;;;4965767;28;20233;-74
2022/04/22 11:06:57;;;;;;;3.10;2.80;;;14.20;81.10;;;;;;4971735;28;20642;-74
2022/04/22 11:09:28;;;;;;;3.43;3.00;;;14.20;79.30;;;;;;4969264;28;20205;-73
2022/04/22 11:11:56;;;;;;;2.67;2.47;;;14.20;80.50;;;;;;4962954;28;20244;-73
2022/04/22 11:14:25;;;;;;;3.27;2.70;;;14.40;80.40;;;;;;4963957;28;20287;-73
2022/04/22 11:16:55;;;;;;;2.87;2.67;;;14.40;79.40;;;;;;4960974;28;20228;-71
2022/04/22 11:19:27;;;;;;;3.53;2.40;;;14.30;78.00;;;;;;4969570;28;20201;-71
2022/04/22 11:21:58;;;;;;;2.97;2.77;;;14.20;78.70;;;;;;4956498;28;20272;-72
2022/04/22 11:24:27;;;;;;;3.17;2.87;;;14.30;79.10;;;;;;4958638;28;20213;-71
2022/04/22 11:27:08;;;;;;;2.70;2.50;;;14.70;80.50;;;;;;4961357;28;20220;-71
2022/04/22 11:29:35;;;;;;;3.10;2.90;;;15.30;77.80;;;;;;4966252;28;20298;-73
2022/04/22 11:32:12;;;;;;;3.10;2.63;;;15.50;75.90;;;;;;4961840;28;20252;-73
2022/04/22 11:35:03;;;;;;;2.60;2.40;;;15.60;74.80;;;;;;4962283;28;20252;-73
2022/04/22 11:37:30;;;;;;;4.03;3.00;;;15.30;74.30;;;;;;4962633;28;20228;-72
2022/04/22 11:39:57;;;;;;;3.23;2.93;;;15.00;75.80;;;;;;4972992;28;20338;-72
2022/04/22 11:42:25;;;;;;;4.43;3.00;;;14.70;76.20;;;;;;4966074;28;20314;-72
2022/04/22 11:45:05;;;;;;;5.60;3.30;;;14.40;76.70;;;;;;4964074;28;20713;-69
2022/04/22 11:47:34;;;;;;;3.47;3.10;;;14.10;77.50;;;;;;4958005;28;20229;-69
2022/04/22 11:50:01;;;;;;;4.73;2.87;;;13.80;78.70;;;;;;4966376;28;20204;-70
2022/04/22 11:52:29;;;;;;;6.13;3.93;;;13.40;79.20;;;;;;4963353;28;20247;-69
2022/04/22 11:55:00;;;;;;;3.83;2.90;;;13.20;80.60;;;;;;4961398;28;20622;-69
2022/04/22 11:57:29;;;;;;;4.03;3.63;;;13.10;81.90;;;;;;4960540;28;20216;-70
2022/04/22 12:05:34;;;;;;;5.33;3.77;;;13.20;84.60;;;;;;4976443;28;20355;-70
2022/04/22 12:08:05;;;;;;;4.57;3.53;;;13.10;84.90;;;;;;4958074;28;20210;-70
2022/04/22 12:10:34;;;;;;;4.47;4.07;;;13.20;85.30;;;;;;4961541;28;20343;-69
2022/04/22 12:13:02;;;;;;;10.17;3.83;;;13.10;85.00;;;;;;4961439;28;20291;-71
2022/04/22 12:15:30;;;;;;;5.40;4.73;;;13.20;85.20;;;;;;4957991;28;20300;-69
2022/04/22 12:18:02;;;;;;;4.60;4.20;;;13.30;85.90;;;;;;4967900;28;20324;-71
2022/04/22 12:20:29;;;;;;;4.57;3.60;;;13.40;85.90;;;;;;4968010;28;20221;-70
2022/04/22 12:22:56;;;;;;;4.33;3.67;;;13.60;84.40;;;;;;4973741;28;20289;-70
2022/04/22 12:25:23;;;;;;;4.07;3.50;;;13.80;83.80;;;;;;4957603;28;20211;-70
2022/04/22 12:28:09;;;;;;;3.97;3.20;;;13.90;82.40;;;;;;4962523;28;20212;-70
2022/04/22 12:30:37;;;;;;;5.20;3.73;;;13.90;82.20;;;;;;4962049;28;20296;-69
2022/04/22 12:33:06;;;;;;;3.37;3.07;;;13.80;81.70;;;;;;4960617;28;20221;-69
2022/04/22 12:35:33;;;;;;;3.60;3.30;;;13.60;81.70;;;;;;4957376;28;20210;-68
2022/04/22 12:38:06;;;;;;;3.60;3.30;;;13.50;82.10;;;;;;4961865;28;20224;-69
2022/04/22 12:40:45;;;;;;;3.03;2.73;;;13.50;82.10;;;;;;4957682;28;20321;-69
2022/04/22 12:43:27;;;;;;;4.10;3.00;;;13.40;81.40;;;;;;4967107;28;20233;-70
2022/04/22 12:54:16;;;;;;;3.60;2.80;;;12.70;83.40;;;;;;4969788;28;20594;-70
2022/04/22 12:56:52;;;;;;;3.57;3.27;;;12.60;85.10;;;;;;4975192;28;20233;-67
2022/04/22 12:59:20;;;;;;;4.37;3.03;;;12.50;85.10;;;;;;4965049;28;20208;-66
2022/04/22 13:01:49;;;;;;;2.97;2.70;;;12.50;84.20;;;;;;4958259;29;20253;-65
2022/04/22 13:04:24;;;;;;;3.87;2.90;;;12.30;83.60;;;;;;4964448;28;20244;-69
2022/04/22 13:06:51;;;;;;;3.10;2.80;;;12.30;83.90;;;;;;4968422;28;20205;-66
2022/04/22 13:09:22;;;;;;;3.00;2.70;;;12.40;83.80;;;;;;4965973;28;20604;-72
2022/04/22 13:11:51;;;;;;;3.17;2.93;;;12.40;83.30;;;;;;4962644;28;20209;-74
2022/04/22 13:14:18;;;;;;;3.70;2.60;;;12.50;82.90;;;;;;4977210;28;20267;-69
2022/04/22 13:16:45;;;;;;;3.73;2.80;;;12.50;82.60;;;;;;4967379;28;20304;-71
2022/04/22 13:19:12;;;;;;;3.20;2.90;;;12.60;82.40;;;;;;4961244;28;20230;-72
2022/04/22 13:21:41;;;;;;;3.07;2.80;;;12.70;82.30;;;;;;4963131;28;20320;-72
2022/04/22 13:24:08;;;;;;;4.13;2.73;;;12.90;82.20;;;;;;4965409;28;20212;-71
2022/04/22 13:26:35;;;;;;;4.63;2.73;;;12.90;80.50;;;;;;4960917;28;20649;-73
2022/04/22 13:29:05;;;;;;;2.80;2.60;;;12.90;80.30;;;;;;4962677;28;20216;-73
2022/04/22 13:31:32;;;;;;;3.20;2.43;;;12.80;79.50;;;;;;4972997;28;20208;-71
2022/04/22 13:34:00;;;;;;;3.33;2.80;;;12.70;78.20;;;;;;4961123;28;20292;-72
2022/04/22 13:36:27;;;;;;;2.50;2.27;;;12.60;78.80;;;;;;4967290;28;20240;-71
2022/04/22 13:38:56;;;;;;;2.60;2.10;;;12.50;78.30;;;;;;4968666;28;20236;-75
2022/04/22 13:41:23;;;;;;;2.83;2.37;;;12.30;77.70;;;;;;4967648;28;20243;-76
2022/04/22 13:43:50;;;;;;;2.00;1.80;;;12.30;77.60;;;;;;4971019;28;20583;-73
2022/04/22 13:54:42;;;;;;;2.33;2.10;;;12.10;77.70;;;;;;4961040;28;20212;-73
2022/04/22 13:57:09;;;;;;;3.00;2.30;;;12.10;77.00;;;;;;4971307;28;20228;-75
2022/04/22 13:59:36;;;;;;;2.40;2.20;;;12.10;76.90;;;;;;4976280;28;20287;-72
2022/04/22 14:02:04;;;;;;;2.50;2.30;;;12.10;77.00;;;;;;4970841;28;20204;-72
2022/04/22 14:04:32;;;;;;;2.50;2.30;;;12.10;77.80;;;;;;4970834;28;20205;-73
2022/04/22 14:06:58;;;;;;;4.23;3.40;;;12.30;78.60;;;;;;4957079;28;20312;-72
2022/04/22 14:09:25;;;;;;;2.87;2.67;;;12.50;78.90;;;;;;4956022;28;20228;-73